createdAt,value
2023-03-31T00:00:57.288Z,11.99
2023-03-31T00:04:04.334Z,11.98
2023-03-31T00:07:07.604Z,11.99
2023-03-31T00:10:17.862Z,11.99
2023-03-31T00:13:21.977Z,12.00
2023-03-31T00:16:23.169Z,12.01
2023-03-31T00:19:24.154Z,12.03
2023-03-31T00:22:26.863Z,12.05
2023-03-31T00:25:28.027Z,12.09
2023-03-31T00:28:29.092Z,12.13
2023-03-31T00:31:30.216Z,12.17
2023-03-31T00:34:31.553Z,12.19
2023-03-31T00:37:33.240Z,12.21
2023-03-31T00:40:35.556Z,12.22
2023-03-31T00:43:37.718Z,12.25
2023-03-31T00:46:53.980Z,12.26
2023-03-31T00:49:56.339Z,12.26
2023-03-31T00:53:02.939Z,12.26
2023-03-31T00:56:12.168Z,12.27
2023-03-31T00:59:13.742Z,12.26
2023-03-31T01:02:15.406Z,12.25
2023-03-31T01:05:18.523Z,12.25
2023-03-31T01:08:23.780Z,12.23
2023-03-31T01:11:26.879Z,12.22
2023-03-31T01:14:28.390Z,12.21
2023-03-31T01:17:30.072Z,12.20
2023-03-31T01:21:06.059Z,12.18
2023-03-31T01:24:23.469Z,12.13
2023-03-31T01:27:43.168Z,12.05
2023-03-31T01:31:14.019Z,11.95
2023-03-31T01:34:56.629Z,11.84
2023-03-31T01:38:32.056Z,11.75
2023-03-31T01:41:43.770Z,11.72
2023-03-31T01:44:54.748Z,11.70
2023-03-31T01:47:59.098Z,11.69
2023-03-31T01:51:06.876Z,11.70
2023-03-31T01:54:17.230Z,11.70
2023-03-31T01:57:27.372Z,11.72
2023-03-31T02:00:33.822Z,11.72
2023-03-31T02:03:39.708Z,11.71
2023-03-31T02:06:49.668Z,11.70
2023-03-31T02:09:57.392Z,11.70
2023-03-31T02:12:59.788Z,11.70
2023-03-31T02:16:06.045Z,11.72
2023-03-31T02:19:18.931Z,11.71
2023-03-31T02:22:20.893Z,11.70
2023-03-31T02:25:24.920Z,11.70
2023-03-31T02:28:27.872Z,11.71
2023-03-31T02:31:52.432Z,11.71
2023-03-31T02:35:03.353Z,11.70
2023-03-31T02:38:11.061Z,11.71
2023-03-31T02:41:22.362Z,11.73
2023-03-31T02:44:43.636Z,11.72
2023-03-31T02:47:45.007Z,11.72
2023-03-31T02:51:08.556Z,11.73
2023-03-31T02:54:45.929Z,11.74
2023-03-31T02:58:34.921Z,11.75
2023-03-31T03:02:03.960Z,11.73
2023-03-31T03:05:18.146Z,11.71
2023-03-31T03:08:32.914Z,11.68
2023-03-31T03:11:55.132Z,11.65
2023-03-31T03:15:32.500Z,11.61
2023-03-31T03:18:42.573Z,11.58
2023-03-31T03:21:52.595Z,11.56
2023-03-31T03:25:14.099Z,11.56
2023-03-31T03:28:15.186Z,11.56
2023-03-31T03:31:16.589Z,11.58
2023-03-31T03:34:19.438Z,11.61
2023-03-31T03:37:30.516Z,11.64
2023-03-31T03:40:31.701Z,11.66
2023-03-31T03:43:32.827Z,11.69
2023-03-31T03:46:34.114Z,11.75
2023-03-31T03:49:35.242Z,11.78
2023-03-31T03:52:36.680Z,11.81
2023-03-31T03:55:37.710Z,11.81
2023-03-31T03:58:46.173Z,11.78
2023-03-31T04:04:35.019Z,11.76
2023-03-31T04:07:36.887Z,11.67
2023-03-31T04:11:00.669Z,11.62
2023-03-31T04:14:02.536Z,11.57
2023-03-31T04:17:06.870Z,11.52
2023-03-31T04:20:10.234Z,11.51
2023-03-31T04:23:21.135Z,11.50
2023-03-31T04:26:26.701Z,11.51
2023-03-31T04:29:28.628Z,11.49
2023-03-31T04:32:33.170Z,11.49
2023-03-31T04:35:58.321Z,11.49
2023-03-31T04:39:01.248Z,11.51
2023-03-31T04:42:03.512Z,11.52
2023-03-31T04:45:18.221Z,11.53
2023-03-31T04:48:23.257Z,11.53
2023-03-31T04:51:55.961Z,11.52
2023-03-31T04:54:58.013Z,11.49
2023-03-31T04:58:00.063Z,11.48
2023-03-31T05:01:01.780Z,11.45
2023-03-31T05:04:04.672Z,11.44
2023-03-31T05:07:17.423Z,11.41
2023-03-31T05:10:22.562Z,11.37
2023-03-31T05:13:24.280Z,11.37
2023-03-31T05:16:31.619Z,11.39
2023-03-31T05:19:36.628Z,11.42
2023-03-31T05:22:43.837Z,11.45
2023-03-31T05:25:47.803Z,11.49
2023-03-31T05:29:09.816Z,11.53
2023-03-31T05:32:31.811Z,11.56
2023-03-31T05:35:45.441Z,11.60
2023-03-31T05:38:50.434Z,11.63
2023-03-31T05:41:52.354Z,11.65
2023-03-31T05:45:00.039Z,11.65
2023-03-31T05:48:02.270Z,11.65
2023-03-31T05:51:06.591Z,11.64
2023-03-31T05:54:19.649Z,11.65
2023-03-31T05:57:24.532Z,11.66
2023-03-31T06:00:36.035Z,11.67
2023-03-31T06:03:43.895Z,11.68
2023-03-31T06:06:50.483Z,11.71
2023-03-31T06:09:52.784Z,11.75
2023-03-31T06:12:56.948Z,11.77
2023-03-31T06:16:00.903Z,11.80
2023-03-31T06:19:10.078Z,11.83
2023-03-31T06:22:12.197Z,11.85
2023-03-31T06:25:48.117Z,11.87
2023-03-31T06:29:07.224Z,11.88
2023-03-31T06:32:09.220Z,11.93
2023-03-31T06:35:24.621Z,11.99
2023-03-31T06:38:30.057Z,12.03
2023-03-31T06:42:12.391Z,12.06
2023-03-31T06:45:15.823Z,12.09
2023-03-31T06:48:17.537Z,12.13
2023-03-31T06:51:19.409Z,12.17
2023-03-31T06:54:26.556Z,12.22
2023-03-31T06:57:39.753Z,12.28
2023-03-31T07:00:53.752Z,12.32
2023-03-31T07:03:55.552Z,12.37
2023-03-31T07:07:00.790Z,12.42
2023-03-31T07:10:02.726Z,12.46
2023-03-31T07:13:05.721Z,12.50
2023-03-31T07:16:18.168Z,12.56
2023-03-31T07:19:20.007Z,12.64
2023-03-31T07:22:23.878Z,12.68
2023-03-31T07:25:35.340Z,12.71
2023-03-31T07:28:45.720Z,12.73
2023-03-31T07:32:07.864Z,12.75
2023-03-31T07:35:12.306Z,12.77
2023-03-31T07:38:14.161Z,12.81
2023-03-31T07:41:18.618Z,12.85
2023-03-31T07:44:21.962Z,12.88
2023-03-31T07:47:26.784Z,12.91
2023-03-31T07:50:28.748Z,12.94
2023-03-31T07:53:31.670Z,12.95
2023-03-31T07:56:34.102Z,12.96
2023-03-31T07:59:46.297Z,12.96
2023-03-31T08:02:48.020Z,13.01
2023-03-31T08:05:53.790Z,13.05
2023-03-31T08:08:56.179Z,13.09
2023-03-31T08:11:57.889Z,13.12
2023-03-31T08:14:59.631Z,13.14
2023-03-31T08:18:04.680Z,13.17
2023-03-31T08:21:07.767Z,13.21
2023-03-31T08:24:31.197Z,13.26
2023-03-31T08:27:34.074Z,13.29
2023-03-31T08:30:38.054Z,13.30
2023-03-31T08:33:39.852Z,13.32
2023-03-31T08:36:41.583Z,13.34
2023-03-31T08:39:43.481Z,13.36
2023-03-31T08:42:49.841Z,13.38
2023-03-31T08:45:56.087Z,13.40
2023-03-31T08:49:18.736Z,13.42
2023-03-31T08:52:36.729Z,13.46
2023-03-31T08:55:51.846Z,13.52
2023-03-31T08:58:54.046Z,13.56
2023-03-31T09:02:31.432Z,13.57
2023-03-31T09:05:59.614Z,13.62
2023-03-31T09:09:03.878Z,13.67
2023-03-31T09:12:11.562Z,13.71
2023-03-31T09:15:23.147Z,13.73
2023-03-31T09:18:46.973Z,13.76
2023-03-31T09:21:51.850Z,13.79
2023-03-31T09:25:27.323Z,13.79
2023-03-31T09:28:40.485Z,13.85
2023-03-31T09:31:44.618Z,13.89
2023-03-31T09:35:01.265Z,13.91
2023-03-31T09:38:13.319Z,13.92
2023-03-31T09:41:16.778Z,13.96
2023-03-31T09:44:39.220Z,14.02
2023-03-31T09:47:52.167Z,14.03
2023-03-31T09:51:04.335Z,14.04
2023-03-31T09:54:16.317Z,14.11
2023-03-31T09:57:29.903Z,14.17
2023-03-31T10:00:34.046Z,14.26
2023-03-31T10:03:54.995Z,14.33
2023-03-31T10:06:57.494Z,14.44
2023-03-31T10:09:59.517Z,14.53
2023-03-31T10:13:09.935Z,14.62
2023-03-31T10:16:30.071Z,14.68
2023-03-31T10:19:37.899Z,14.75
2023-03-31T10:22:45.629Z,14.81
2023-03-31T10:25:48.023Z,14.85
2023-03-31T10:28:52.963Z,14.93
2023-03-31T10:31:55.023Z,15.04
2023-03-31T10:34:58.357Z,15.17
2023-03-31T10:38:05.775Z,15.29
2023-03-31T10:41:08.325Z,15.41
2023-03-31T10:44:37.098Z,15.52
2023-03-31T10:47:39.997Z,15.52
2023-03-31T10:50:43.878Z,15.51
2023-03-31T10:53:48.106Z,15.54
2023-03-31T10:56:56.078Z,15.62
2023-03-31T11:00:12.897Z,15.72
2023-03-31T11:03:20.615Z,15.87
2023-03-31T11:07:10.425Z,15.97
2023-03-31T11:10:39.542Z,16.10
2023-03-31T11:14:12.737Z,16.19
2023-03-31T11:17:28.310Z,16.26
2023-03-31T11:21:26.994Z,16.32
2023-03-31T11:24:49.151Z,16.48
2023-03-31T11:28:01.788Z,16.55
2023-03-31T11:31:28.854Z,16.63
2023-03-31T11:35:14.525Z,16.76
2023-03-31T11:38:51.238Z,16.91
2023-03-31T11:41:56.407Z,17.09
2023-03-31T11:45:03.519Z,17.27
2023-03-31T11:48:24.469Z,17.45
2023-03-31T11:51:29.925Z,17.61
2023-03-31T11:54:52.204Z,17.75
2023-03-31T11:57:59.427Z,17.85
2023-03-31T12:01:29.186Z,18.06
2023-03-31T12:04:37.640Z,18.25
2023-03-31T12:08:00.849Z,18.46
2023-03-31T12:11:11.039Z,18.70
2023-03-31T12:14:38.096Z,18.90
2023-03-31T12:17:42.263Z,19.09
2023-03-31T12:20:52.317Z,19.19
2023-03-31T12:23:53.973Z,19.21
2023-03-31T12:27:07.938Z,19.12
2023-03-31T12:30:21.360Z,19.09
2023-03-31T12:33:33.496Z,19.13
2023-03-31T12:36:57.019Z,19.20
2023-03-31T12:40:21.822Z,19.30
2023-03-31T12:43:45.385Z,19.33
2023-03-31T12:47:08.939Z,19.21
2023-03-31T12:50:35.329Z,19.19
2023-03-31T12:53:55.160Z,19.21
2023-03-31T12:57:08.983Z,19.15
2023-03-31T13:00:30.287Z,19.14
2023-03-31T13:04:12.569Z,19.10
2023-03-31T13:07:41.411Z,18.96
2023-03-31T13:10:59.846Z,18.88
2023-03-31T13:14:14.555Z,18.86
2023-03-31T13:17:48.246Z,18.89
2023-03-31T13:21:00.646Z,18.84
2023-03-31T13:24:03.242Z,18.74
2023-03-31T13:27:39.669Z,18.74
2023-03-31T13:30:43.998Z,18.74
2023-03-31T13:33:57.390Z,18.77
2023-03-31T13:37:16.763Z,18.83
2023-03-31T13:40:56.085Z,18.90
2023-03-31T13:44:00.772Z,18.92
2023-03-31T13:47:20.918Z,18.81
2023-03-31T13:50:42.633Z,18.70
2023-03-31T13:54:19.856Z,18.61
2023-03-31T13:57:29.225Z,18.53
2023-03-31T14:01:19.040Z,18.43
2023-03-31T14:04:30.121Z,18.37
2023-03-31T14:07:37.402Z,18.27
2023-03-31T14:10:49.842Z,18.21
2023-03-31T14:14:09.728Z,18.21
2023-03-31T14:17:12.189Z,18.22
2023-03-31T14:20:38.796Z,18.22
2023-03-31T14:23:55.975Z,18.18
2023-03-31T14:27:27.160Z,18.10
2023-03-31T14:30:38.642Z,17.98
2023-03-31T14:34:09.699Z,17.93
2023-03-31T14:37:13.926Z,17.85
2023-03-31T14:40:16.987Z,17.79
2023-03-31T14:43:25.750Z,17.67
2023-03-31T14:46:32.837Z,17.52
2023-03-31T14:49:48.654Z,17.41
2023-03-31T14:52:52.518Z,17.33
2023-03-31T14:56:05.180Z,17.26
2023-03-31T14:59:07.952Z,17.24
2023-03-31T15:02:16.940Z,17.18
2023-03-31T15:05:32.991Z,17.08
2023-03-31T15:08:37.543Z,17.02
2023-03-31T15:11:39.551Z,16.98
2023-03-31T15:14:52.213Z,16.95
2023-03-31T15:17:54.909Z,16.94
2023-03-31T15:20:56.964Z,16.86
2023-03-31T15:23:59.276Z,16.79
2023-03-31T15:27:05.521Z,16.75
2023-03-31T15:30:09.717Z,16.72
2023-03-31T15:33:27.306Z,16.66
2023-03-31T15:36:51.678Z,16.59
2023-03-31T15:39:55.616Z,16.50
2023-03-31T15:43:20.182Z,16.42
2023-03-31T15:46:51.249Z,16.37
2023-03-31T15:50:14.175Z,16.35
2023-03-31T15:53:52.411Z,16.32
2023-03-31T15:57:00.271Z,16.27
2023-03-31T16:00:27.620Z,16.23
2023-03-31T16:03:40.643Z,16.20
2023-03-31T16:06:48.132Z,16.17
2023-03-31T16:10:16.625Z,16.14
2023-03-31T16:13:39.324Z,16.12
2023-03-31T16:16:40.933Z,16.08
2023-03-31T16:19:53.111Z,16.04
2023-03-31T16:22:59.423Z,16.03
2023-03-31T16:26:01.712Z,16.02
2023-03-31T16:29:04.210Z,15.99
2023-03-31T16:32:21.025Z,15.96
2023-03-31T16:35:22.879Z,15.93
2023-03-31T16:38:45.138Z,15.90
2023-03-31T16:41:49.480Z,15.87
2023-03-31T16:45:09.617Z,15.83
2023-03-31T16:48:16.673Z,15.80
2023-03-31T16:51:42.650Z,15.79
2023-03-31T16:54:44.784Z,15.76
2023-03-31T16:57:47.104Z,15.73
2023-03-31T17:00:51.464Z,15.72
2023-03-31T17:04:03.429Z,15.73
2023-03-31T17:07:05.255Z,15.77
2023-03-31T17:10:08.148Z,15.81
2023-03-31T17:13:10.566Z,15.84
2023-03-31T17:16:22.124Z,15.81
2023-03-31T17:19:33.617Z,15.75
2023-03-31T17:22:35.794Z,15.73
2023-03-31T17:25:38.351Z,15.72
2023-03-31T17:28:42.885Z,15.66
2023-03-31T17:31:45.092Z,15.56
2023-03-31T17:34:50.570Z,15.43
2023-03-31T17:37:54.001Z,15.30
2023-03-31T17:40:55.795Z,15.16
2023-03-31T17:43:58.086Z,15.00
2023-03-31T17:47:02.241Z,14.82
2023-03-31T17:50:05.049Z,14.65
2023-03-31T17:53:09.196Z,14.52
2023-03-31T17:56:11.820Z,14.40
2023-03-31T17:59:13.563Z,14.29
2023-03-31T18:02:25.705Z,14.18
2023-03-31T18:05:27.635Z,14.06
2023-03-31T18:08:30.075Z,13.96
2023-03-31T18:11:34.900Z,13.87
2023-03-31T18:14:57.458Z,13.72
2023-03-31T18:17:59.984Z,13.56
2023-03-31T18:21:08.639Z,13.41
2023-03-31T18:24:10.539Z,13.27
2023-03-31T18:27:12.591Z,13.15
2023-03-31T18:30:17.059Z,13.04
2023-03-31T18:33:22.046Z,12.94
2023-03-31T18:36:32.509Z,12.86
2023-03-31T18:39:34.679Z,12.77
2023-03-31T18:42:44.213Z,12.69
2023-03-31T18:46:01.360Z,12.61
2023-03-31T18:49:23.633Z,12.53
2023-03-31T18:52:38.675Z,12.47
2023-03-31T18:55:53.213Z,12.39
2023-03-31T18:59:05.257Z,12.32
2023-03-31T19:02:36.874Z,12.26
2023-03-31T19:05:48.065Z,12.18
2023-03-31T19:09:00.944Z,12.15
2023-03-31T19:12:12.017Z,12.09
2023-03-31T19:15:13.897Z,12.04
2023-03-31T19:18:26.363Z,11.99
2023-03-31T19:21:33.183Z,11.93
2023-03-31T19:24:45.139Z,11.84
2023-03-31T19:28:10.017Z,11.74
2023-03-31T19:31:18.035Z,11.62
2023-03-31T19:34:32.541Z,11.52
2023-03-31T19:38:03.926Z,11.43
2023-03-31T19:41:58.788Z,11.32
2023-03-31T19:45:04.291Z,11.22
2023-03-31T19:48:18.290Z,11.16
2023-03-31T19:51:20.494Z,11.12
2023-03-31T19:54:24.997Z,11.10
2023-03-31T19:57:42.956Z,11.06
2023-03-31T20:00:48.169Z,11.03
2023-03-31T20:03:53.240Z,11.00
2023-03-31T20:07:04.736Z,10.97
2023-03-31T20:10:40.566Z,10.93
2023-03-31T20:14:03.101Z,10.89
2023-03-31T20:17:56.031Z,10.86
2023-03-31T20:21:14.779Z,10.79
2023-03-31T20:24:27.465Z,10.73
2023-03-31T20:27:48.419Z,10.69
2023-03-31T20:31:39.546Z,10.66
2023-03-31T20:35:14.269Z,10.64
2023-03-31T20:38:16.522Z,10.62
2023-03-31T20:41:31.914Z,10.58
2023-03-31T20:44:33.895Z,10.51
2023-03-31T20:47:56.149Z,10.43
2023-03-31T20:51:22.778Z,10.38
2023-03-31T20:58:50.580Z,10.32
2023-03-31T21:02:35.507Z,10.28
2023-03-31T21:06:24.012Z,10.29
2023-03-31T21:09:26.308Z,10.32
2023-03-31T21:12:28.937Z,10.34
2023-03-31T21:15:54.524Z,10.37
2023-03-31T21:19:37.031Z,10.41
2023-03-31T21:23:00.782Z,10.43
2023-03-31T21:26:23.244Z,10.45
2023-03-31T21:29:25.116Z,10.45
2023-03-31T21:32:30.300Z,10.46
2023-03-31T21:35:52.777Z,10.46
2023-03-31T21:38:55.783Z,10.45
2023-03-31T21:41:57.520Z,10.42
2023-03-31T21:45:19.527Z,10.40
2023-03-31T21:48:31.865Z,10.37
2023-03-31T21:51:43.981Z,10.33
2023-03-31T21:54:46.049Z,10.30
2023-03-31T21:57:50.845Z,10.28
2023-03-31T22:01:26.752Z,10.25
2023-03-31T22:04:30.693Z,10.18
2023-03-31T22:07:33.799Z,10.09
2023-03-31T22:11:08.376Z,10.01
2023-03-31T22:14:30.535Z,9.92
2023-03-31T22:17:45.362Z,9.83
2023-03-31T22:21:26.274Z,9.75
2023-03-31T22:24:57.515Z,9.65
2023-03-31T22:28:00.164Z,9.55
2023-03-31T22:31:02.124Z,9.47
2023-03-31T22:34:06.600Z,9.41
2023-03-31T22:37:20.632Z,9.37
2023-03-31T22:40:46.069Z,9.31
2023-03-31T22:44:08.438Z,9.27
2023-03-31T22:47:18.076Z,9.23
2023-03-31T22:50:32.853Z,9.21
2023-03-31T22:53:58.258Z,9.18
2023-03-31T22:57:32.286Z,9.14
2023-03-31T23:00:42.205Z,9.11
2023-03-31T23:04:08.909Z,9.07
2023-03-31T23:07:50.629Z,9.03
2023-03-31T23:11:33.136Z,8.98
2023-03-31T23:15:45.006Z,8.94
2023-03-31T23:19:26.039Z,8.93
2023-03-31T23:22:56.640Z,8.90
2023-03-31T23:26:15.697Z,8.88
2023-03-31T23:29:46.676Z,8.83
2023-03-31T23:33:28.942Z,8.79
2023-03-31T23:37:03.208Z,8.70
2023-03-31T23:40:57.357Z,8.57
2023-03-31T23:44:59.849Z,8.49
2023-03-31T23:49:05.374Z,8.44
2023-03-31T23:52:59.435Z,8.39
2023-03-31T23:56:47.060Z,8.34
